createdAt,value
2019-05-12T00:01:18.784Z,92.37
2019-05-12T00:03:24.017Z,91.78
2019-05-12T00:05:29.593Z,85.38
2019-05-12T00:07:37.934Z,83.47
2019-05-12T00:09:42.483Z,83.87
2019-05-12T00:11:48.438Z,78.40
2019-05-12T00:13:54.240Z,64.15
2019-05-12T00:15:59.874Z,62.38
2019-05-12T00:18:05.433Z,63.80
2019-05-12T00:20:11.348Z,68.17
2019-05-12T00:22:18.537Z,64.40
2019-05-12T00:24:24.065Z,62.50
2019-05-12T00:26:29.734Z,62.67
2019-05-12T00:28:37.563Z,72.08
2019-05-12T00:30:44.149Z,74.85
2019-05-12T00:32:49.816Z,88.40
2019-05-12T00:34:55.387Z,89.10
2019-05-12T00:37:00.941Z,108.25
2019-05-12T00:39:08.684Z,106.15
2019-05-12T00:41:14.351Z,107.00
2019-05-12T00:43:19.922Z,94.70
2019-05-12T00:45:25.561Z,104.20
2019-05-12T00:47:31.113Z,117.22
2019-05-12T00:49:37.984Z,123.25
2019-05-12T00:51:43.473Z,129.93
2019-05-12T00:53:49.029Z,104.67
2019-05-12T00:55:54.595Z,117.65
2019-05-12T00:58:00.194Z,110.48
2019-05-12T01:00:09.660Z,110.57
2019-05-12T01:02:15.208Z,109.87
2019-05-12T01:04:20.784Z,147.82
2019-05-12T01:06:28.270Z,140.50
2019-05-12T01:08:33.487Z,112.35
2019-05-12T01:10:40.150Z,141.05
2019-05-12T01:12:48.493Z,144.82
2019-05-12T01:14:53.509Z,133.52
2019-05-12T01:16:59.014Z,126.82
2019-05-12T01:19:04.679Z,110.03
2019-05-12T01:21:10.278Z,105.12
2019-05-12T01:23:15.848Z,90.38
2019-05-12T01:25:21.522Z,81.65
2019-05-12T01:27:28.759Z,94.45
2019-05-12T01:29:34.349Z,83.80
2019-05-12T01:31:44.550Z,98.58
2019-05-12T01:33:50.489Z,97.65
2019-05-12T01:35:58.470Z,92.02
2019-05-12T01:38:03.274Z,94.87
2019-05-12T01:40:10.499Z,90.40
2019-05-12T01:42:18.054Z,89.15
2019-05-12T01:44:41.431Z,90.65
2019-05-12T01:46:48.378Z,100.42
2019-05-12T01:48:54.137Z,102.27
2019-05-12T01:50:59.685Z,97.90
2019-05-12T01:53:07.912Z,104.85
2019-05-12T01:55:13.266Z,108.85
2019-05-12T01:57:18.963Z,103.65
2019-05-12T01:59:24.466Z,97.60
2019-05-12T02:01:30.009Z,101.50
2019-05-12T02:03:37.545Z,99.30
2019-05-12T02:05:44.421Z,91.53
2019-05-12T02:07:51.588Z,92.80
2019-05-12T02:09:58.460Z,83.35
2019-05-12T02:12:04.156Z,90.75
2019-05-12T02:14:09.762Z,87.15
2019-05-12T02:16:15.316Z,83.22
2019-05-12T02:18:20.857Z,87.42
2019-05-12T02:20:28.547Z,91.28
2019-05-12T02:22:33.729Z,91.55
2019-05-12T02:24:39.269Z,97.05
2019-05-12T02:26:44.810Z,98.42
2019-05-12T02:28:50.336Z,97.10
2019-05-12T02:30:58.734Z,86.55
2019-05-12T02:33:05.165Z,87.95
2019-05-12T02:35:10.429Z,86.92
2019-05-12T02:37:16.018Z,84.20
2019-05-12T02:39:24.605Z,85.97
2019-05-12T02:41:28.829Z,89.03
2019-05-12T02:43:34.901Z,90.92
2019-05-12T02:45:40.656Z,93.00
2019-05-12T02:47:46.223Z,88.65
2019-05-12T02:49:54.423Z,86.45
2019-05-12T02:52:19.899Z,92.97
2019-05-12T02:54:45.860Z,92.42
2019-05-12T02:56:36.069Z,97.10
2019-05-12T02:58:45.332Z,86.45
2019-05-12T03:00:54.582Z,81.02
2019-05-12T03:02:58.717Z,82.05
2019-05-12T03:05:06.898Z,83.55
2019-05-12T03:07:15.311Z,75.97
2019-05-12T03:09:24.452Z,76.47
2019-05-12T03:11:29.587Z,84.95
2019-05-12T03:13:36.186Z,82.75
2019-05-12T03:15:44.618Z,82.50
2019-05-12T03:17:51.019Z,83.05
2019-05-12T03:19:56.577Z,80.77
2019-05-12T03:22:04.804Z,76.50
2019-05-12T03:24:09.507Z,73.10
2019-05-12T03:26:15.557Z,74.32
2019-05-12T03:28:25.500Z,70.25
2019-05-12T03:30:29.981Z,65.50
2019-05-12T03:32:37.739Z,71.97
2019-05-12T03:34:47.353Z,67.45
2019-05-12T03:36:51.789Z,59.75
2019-05-12T03:38:57.237Z,64.47
2019-05-12T03:41:05.305Z,67.55
2019-05-12T03:43:09.931Z,64.47
2019-05-12T03:45:15.558Z,60.80
2019-05-12T03:47:21.119Z,59.03
2019-05-12T03:49:27.761Z,55.98
2019-05-12T03:51:34.978Z,56.63
2019-05-12T03:53:40.613Z,57.25
2019-05-12T03:55:47.270Z,59.33
2019-05-12T03:57:55.161Z,62.23
2019-05-12T04:00:00.841Z,65.62
2019-05-12T04:02:07.545Z,73.78
2019-05-12T04:04:15.152Z,69.60
2019-05-12T04:06:20.324Z,69.53
2019-05-12T04:08:25.962Z,72.17
2019-05-12T04:10:31.514Z,68.55
2019-05-12T04:12:37.115Z,68.50
2019-05-12T04:14:44.890Z,69.67
2019-05-12T04:16:49.819Z,64.95
2019-05-12T04:18:55.431Z,66.45
2019-05-12T04:21:05.757Z,66.33
2019-05-12T04:23:11.462Z,60.00
2019-05-12T04:25:17.002Z,62.15
2019-05-12T04:27:25.121Z,66.67
2019-05-12T04:29:29.718Z,64.42
2019-05-12T04:31:36.889Z,68.67
2019-05-12T04:33:45.182Z,66.33
2019-05-12T04:35:49.700Z,64.65
2019-05-12T04:37:55.623Z,73.95
2019-05-12T04:40:01.275Z,68.65
2019-05-12T04:42:06.825Z,68.90
2019-05-12T04:44:15.301Z,69.72
2019-05-12T04:46:19.522Z,67.40
2019-05-12T04:48:25.752Z,60.80
2019-05-12T04:50:34.898Z,60.15
2019-05-12T04:52:38.805Z,57.17
2019-05-12T04:54:44.650Z,59.08
2019-05-12T04:56:50.329Z,52.43
2019-05-12T04:58:55.976Z,54.67
2019-05-12T05:01:01.562Z,53.95
2019-05-12T05:03:07.093Z,53.83
2019-05-12T05:05:14.451Z,55.88
2019-05-12T05:07:20.244Z,55.55
2019-05-12T05:09:25.876Z,53.80
2019-05-12T05:11:34.329Z,56.23
2019-05-12T05:13:39.763Z,54.08
2019-05-12T05:15:45.906Z,59.40
2019-05-12T05:17:54.300Z,52.38
2019-05-12T05:19:58.664Z,51.65
2019-05-12T05:22:04.390Z,56.92
2019-05-12T05:24:09.911Z,57.53
2019-05-12T05:26:24.498Z,61.58
2019-05-12T05:28:23.638Z,60.03
2019-05-12T05:30:29.395Z,66.42
2019-05-12T05:32:35.018Z,62.73
2019-05-12T05:34:46.070Z,61.92
2019-05-12T05:36:51.146Z,66.22
2019-05-12T05:38:59.575Z,70.05
2019-05-12T05:41:06.075Z,67.65
2019-05-12T05:43:12.825Z,63.60
2019-05-12T05:45:23.555Z,70.08
2019-05-12T05:47:28.549Z,75.65
2019-05-12T05:49:34.215Z,64.20
2019-05-12T05:51:48.315Z,56.53
2019-05-12T05:53:49.798Z,58.83
2019-05-12T05:56:00.327Z,56.28
2019-05-12T05:58:10.332Z,60.38
2019-05-12T06:00:22.865Z,61.73
2019-05-12T06:02:23.198Z,60.90
2019-05-12T06:04:27.868Z,64.65
2019-05-12T06:06:34.169Z,61.08
2019-05-12T06:08:39.881Z,59.55
2019-05-12T06:10:45.859Z,58.90
2019-05-12T06:12:51.391Z,67.50
2019-05-12T06:14:59.863Z,58.40
2019-05-12T06:17:04.453Z,62.90
2019-05-12T06:19:10.120Z,57.70
2019-05-12T06:21:15.701Z,59.50
2019-05-12T06:23:23.886Z,60.90
2019-05-12T06:25:45.005Z,68.72
2019-05-12T06:27:35.985Z,67.58
2019-05-12T06:29:43.759Z,66.42
2019-05-12T06:31:49.167Z,64.07
2019-05-12T06:33:54.744Z,66.77
2019-05-12T06:36:00.342Z,61.42
2019-05-12T06:38:05.953Z,62.90
2019-05-12T06:40:14.021Z,69.10
2019-05-12T06:42:19.160Z,63.48
2019-05-12T06:44:24.892Z,112.20
2019-05-12T06:46:30.442Z,73.02
2019-05-12T06:48:36.006Z,104.80
2019-05-12T06:50:41.540Z,75.08
2019-05-12T06:52:49.098Z,124.47
2019-05-12T06:54:56.590Z,110.52
2019-05-12T06:57:18.570Z,64.53
2019-05-12T06:59:11.620Z,75.85
2019-05-12T07:01:19.403Z,62.67
2019-05-12T07:03:25.802Z,85.25
2019-05-12T07:05:33.802Z,99.80
2019-05-12T07:07:42.163Z,85.15
2019-05-12T07:09:54.131Z,88.90
2019-05-12T07:11:58.858Z,102.27
2019-05-12T07:14:04.524Z,204.25
2019-05-12T07:16:21.814Z,181.22
2019-05-12T07:18:32.229Z,77.65
2019-05-12T07:20:37.201Z,60.63
2019-05-12T07:22:44.269Z,62.70
2019-05-12T07:24:50.245Z,56.80
2019-05-12T07:26:54.688Z,42.45
2019-05-12T07:29:00.028Z,47.70
2019-05-12T07:31:05.656Z,64.75
2019-05-12T07:33:11.281Z,42.05
2019-05-12T07:35:16.882Z,46.05
2019-05-12T07:37:24.474Z,48.83
2019-05-12T07:39:37.023Z,60.45
2019-05-12T07:41:42.416Z,57.15
2019-05-12T07:43:50.437Z,52.95
2019-05-12T07:46:02.552Z,59.67
2019-05-12T07:48:10.003Z,48.85
2019-05-12T07:50:16.248Z,55.55
2019-05-12T07:52:18.981Z,57.93
2019-05-12T07:54:29.378Z,58.63
2019-05-12T07:56:33.494Z,61.85
2019-05-12T07:58:41.044Z,57.20
2019-05-12T08:00:46.242Z,51.10
2019-05-12T08:02:53.591Z,45.95
2019-05-12T08:04:59.024Z,50.95
2019-05-12T08:07:04.633Z,52.83
2019-05-12T08:09:10.195Z,48.08
2019-05-12T08:11:15.843Z,44.88
2019-05-12T08:13:23.669Z,60.25
2019-05-12T08:15:28.652Z,64.15
2019-05-12T08:17:34.384Z,51.95
2019-05-12T08:19:39.919Z,46.83
2019-05-12T08:21:49.037Z,50.85
2019-05-12T08:23:53.564Z,37.70
2019-05-12T08:26:03.730Z,40.98
2019-05-12T08:28:14.917Z,44.75
2019-05-12T08:30:13.994Z,42.62
2019-05-12T08:32:20.410Z,37.78
2019-05-12T08:34:26.010Z,58.02
2019-05-12T08:36:33.479Z,32.00
2019-05-12T08:38:38.807Z,46.73
2019-05-12T08:40:49.013Z,47.88
2019-05-12T08:42:53.874Z,46.92
2019-05-12T08:44:58.895Z,33.98
2019-05-12T08:47:04.629Z,64.07
2019-05-12T08:49:10.184Z,50.78
2019-05-12T08:51:19.467Z,30.82
2019-05-12T08:53:23.583Z,35.05
2019-05-12T08:55:31.465Z,39.48
2019-05-12T08:57:40.688Z,30.02
2019-05-12T08:59:44.491Z,22.40
2019-05-12T09:01:50.033Z,22.37
2019-05-12T09:04:00.276Z,32.63
2019-05-12T09:06:04.046Z,20.88
2019-05-12T09:08:09.824Z,33.55
2019-05-12T09:10:15.458Z,46.80
2019-05-12T09:12:23.171Z,24.02
2019-05-12T09:14:28.237Z,19.35
2019-05-12T09:16:35.381Z,22.65
2019-05-12T09:18:43.299Z,23.18
2019-05-12T09:20:52.744Z,16.05
2019-05-12T09:23:00.567Z,16.35
2019-05-12T09:25:06.145Z,17.85
2019-05-12T09:27:09.662Z,22.75
2019-05-12T09:29:15.196Z,25.40
2019-05-12T09:31:25.473Z,21.33
2019-05-12T09:33:31.970Z,18.50
2019-05-12T09:35:39.265Z,8.40
2019-05-12T09:37:44.104Z,9.08
2019-05-12T09:39:51.855Z,27.40
2019-05-12T09:41:56.940Z,27.35
2019-05-12T09:44:04.507Z,43.98
2019-05-12T09:46:09.745Z,24.98
2019-05-12T09:48:15.259Z,31.62
2019-05-12T09:50:20.975Z,13.45
2019-05-12T09:52:27.174Z,17.70
2019-05-12T09:54:35.464Z,32.45
2019-05-12T09:56:41.381Z,27.10
2019-05-12T09:58:59.034Z,13.20
2019-05-12T10:00:55.994Z,16.12
2019-05-12T10:03:01.565Z,15.48
2019-05-12T10:05:08.377Z,49.63
2019-05-12T10:07:14.131Z,34.05
2019-05-12T10:09:20.118Z,24.18
2019-05-12T10:11:25.668Z,20.30
2019-05-12T10:13:31.313Z,16.10
2019-05-12T10:15:36.896Z,15.38
2019-05-12T10:17:43.536Z,15.20
2019-05-12T10:19:56.163Z,20.48
2019-05-12T10:21:59.458Z,17.48
2019-05-12T10:24:05.076Z,17.60
2019-05-12T10:26:12.301Z,23.80
2019-05-12T10:28:17.959Z,17.12
2019-05-12T10:30:23.616Z,9.50
2019-05-12T10:32:29.316Z,11.53
2019-05-12T10:34:40.135Z,12.03
2019-05-12T10:36:44.858Z,17.27
2019-05-12T10:38:50.896Z,22.32
2019-05-12T10:40:56.519Z,26.25
2019-05-12T10:43:04.146Z,23.62
2019-05-12T10:45:10.873Z,18.15
2019-05-12T10:47:17.280Z,40.30
2019-05-12T10:49:23.301Z,23.35
2019-05-12T10:51:29.003Z,32.17
2019-05-12T10:53:34.656Z,25.57
2019-05-12T10:55:40.220Z,36.60
2019-05-12T10:57:47.257Z,39.90
2019-05-12T10:59:53.395Z,50.65
2019-05-12T11:01:59.168Z,43.68
2019-05-12T11:04:04.800Z,46.08
2019-05-12T11:06:10.373Z,51.95
2019-05-12T11:08:15.950Z,36.53
2019-05-12T11:10:23.325Z,42.38
2019-05-12T11:12:29.246Z,55.85
2019-05-12T11:14:35.019Z,27.37
2019-05-12T11:16:42.557Z,37.13
2019-05-12T11:18:47.813Z,32.55
2019-05-12T11:20:54.448Z,34.75
2019-05-12T11:23:00.241Z,28.00
2019-05-12T11:25:06.651Z,39.60
2019-05-12T11:27:13.439Z,28.62
2019-05-12T11:29:19.120Z,29.75
2019-05-12T11:31:24.652Z,26.42
2019-05-12T11:33:30.227Z,24.82
2019-05-12T11:35:36.068Z,23.07
2019-05-12T11:37:42.768Z,32.60
2019-05-12T11:39:48.444Z,36.05
2019-05-12T11:41:55.417Z,62.13
2019-05-12T11:44:01.089Z,51.33
2019-05-12T11:46:06.636Z,27.25
2019-05-12T11:48:14.449Z,25.72
2019-05-12T11:50:19.537Z,19.20
2019-05-12T11:52:25.242Z,23.15
2019-05-12T11:54:30.765Z,17.95
2019-05-12T11:56:50.359Z,16.42
2019-05-12T11:58:55.780Z,18.05
2019-05-12T12:01:06.314Z,16.50
2019-05-12T12:03:17.584Z,12.93
2019-05-12T12:05:17.476Z,16.45
2019-05-12T12:07:23.890Z,15.45
2019-05-12T12:09:29.559Z,13.98
2019-05-12T12:11:35.231Z,16.25
2019-05-12T12:13:40.789Z,11.68
2019-05-12T12:15:46.395Z,18.73
2019-05-12T12:17:53.566Z,22.90
2019-05-12T12:19:59.635Z,32.38
2019-05-12T12:22:05.365Z,15.35
2019-05-12T12:24:13.105Z,16.87
2019-05-12T12:26:30.124Z,22.17
2019-05-12T12:28:34.433Z,42.78
2019-05-12T12:30:40.135Z,136.00
2019-05-12T12:32:45.690Z,130.93
2019-05-12T12:34:54.419Z,150.70
2019-05-12T12:37:00.143Z,92.17
2019-05-12T12:39:06.911Z,111.30
2019-05-12T12:41:13.184Z,83.25
2019-05-12T12:43:18.864Z,47.88
2019-05-12T12:45:43.295Z,47.08
2019-05-12T12:47:49.370Z,34.57
2019-05-12T12:49:55.080Z,34.55
2019-05-12T12:52:03.293Z,48.23
2019-05-12T12:54:09.066Z,42.05
2019-05-12T12:56:21.519Z,31.97
2019-05-12T12:58:26.976Z,27.67
2019-05-12T13:00:32.789Z,16.40
2019-05-12T13:02:39.030Z,15.98
2019-05-12T13:04:48.399Z,22.82
2019-05-12T13:06:51.074Z,15.00
2019-05-12T13:08:56.652Z,21.00
2019-05-12T13:11:04.340Z,21.02
2019-05-12T13:13:09.432Z,26.55
2019-05-12T13:15:15.268Z,29.32
2019-05-12T13:17:20.889Z,25.77
2019-05-12T13:19:26.427Z,20.75
2019-05-12T13:21:33.593Z,20.92
2019-05-12T13:23:41.108Z,23.98
2019-05-12T13:25:50.799Z,27.00
2019-05-12T13:27:53.657Z,19.95
2019-05-12T13:30:02.000Z,23.52
2019-05-12T13:32:06.528Z,19.57
2019-05-12T13:34:14.236Z,22.40
2019-05-12T13:36:19.412Z,23.40
2019-05-12T13:38:24.950Z,28.80
2019-05-12T13:40:36.087Z,28.12
2019-05-12T13:42:37.788Z,23.47
2019-05-12T13:44:43.722Z,21.02
2019-05-12T13:46:56.981Z,21.27
2019-05-12T13:48:59.648Z,24.47
2019-05-12T13:51:16.141Z,21.48
2019-05-12T13:53:24.171Z,26.65
2019-05-12T13:55:28.951Z,31.02
2019-05-12T13:57:34.503Z,28.20
2019-05-12T13:59:40.051Z,22.65
2019-05-12T14:01:45.930Z,22.30
2019-05-12T14:03:53.620Z,23.85
2019-05-12T14:06:25.404Z,22.25
2019-05-12T14:08:25.174Z,23.32
2019-05-12T14:10:32.546Z,29.10
2019-05-12T14:12:37.903Z,61.25
2019-05-12T14:14:44.452Z,34.90
2019-05-12T14:16:57.479Z,198.80
2019-05-12T14:19:00.418Z,65.65
2019-05-12T14:21:04.524Z,69.30
2019-05-12T14:23:10.099Z,30.35
2019-05-12T14:25:21.167Z,38.20
2019-05-12T14:27:25.587Z,41.68
2019-05-12T14:29:30.739Z,43.20
2019-05-12T14:31:45.331Z,46.90
2019-05-12T14:33:44.399Z,49.58
2019-05-12T14:35:49.921Z,57.40
2019-05-12T14:37:55.488Z,46.33
2019-05-12T14:40:01.058Z,44.33
2019-05-12T14:42:06.650Z,46.08
2019-05-12T14:44:13.777Z,49.18
2019-05-12T14:46:19.710Z,43.28
2019-05-12T14:48:25.282Z,40.90
2019-05-12T14:50:30.825Z,46.20
2019-05-12T14:52:36.476Z,31.02
2019-05-12T14:54:43.588Z,31.40
2019-05-12T14:56:53.650Z,38.65
2019-05-12T14:59:00.666Z,38.23
2019-05-12T15:01:04.052Z,31.60
2019-05-12T15:03:13.797Z,32.23
2019-05-12T15:05:16.979Z,34.85
2019-05-12T15:07:23.633Z,33.40
2019-05-12T15:09:29.324Z,26.82
2019-05-12T15:11:35.053Z,33.05
2019-05-12T15:13:40.571Z,28.70
2019-05-12T15:15:50.167Z,24.00
2019-05-12T15:17:56.729Z,24.85
2019-05-12T15:20:08.800Z,25.68
2019-05-12T15:22:11.703Z,29.23
2019-05-12T15:24:18.770Z,24.98
2019-05-12T15:26:24.262Z,24.85
2019-05-12T15:28:29.521Z,25.95
2019-05-12T15:30:35.117Z,22.80
2019-05-12T15:32:40.687Z,28.05
2019-05-12T15:34:46.201Z,29.57
2019-05-12T15:36:55.948Z,33.83
2019-05-12T15:38:59.091Z,46.25
2019-05-12T15:41:04.899Z,40.55
2019-05-12T15:43:10.440Z,32.80
2019-05-12T15:45:16.973Z,33.50
2019-05-12T15:47:27.240Z,35.45
2019-05-12T15:49:29.917Z,25.15
2019-05-12T15:51:38.850Z,21.07
2019-05-12T15:53:44.554Z,21.42
2019-05-12T15:55:50.202Z,22.27
2019-05-12T15:57:55.721Z,17.27
2019-05-12T16:00:01.263Z,19.32
2019-05-12T16:02:14.458Z,20.90
2019-05-12T16:04:15.098Z,21.75
2019-05-12T16:06:21.277Z,19.73
2019-05-12T16:08:26.831Z,36.40
2019-05-12T16:10:32.464Z,33.53
2019-05-12T16:12:38.114Z,42.38
2019-05-12T16:14:44.215Z,120.22
2019-05-12T16:16:49.752Z,34.48
2019-05-12T16:18:55.274Z,80.12
2019-05-12T16:21:07.233Z,96.50
2019-05-12T16:23:08.132Z,29.77
2019-05-12T16:25:15.345Z,19.05
2019-05-12T16:27:25.004Z,25.23
2019-05-12T16:29:29.458Z,25.62
2019-05-12T16:31:39.563Z,25.40
2019-05-12T16:33:43.635Z,28.62
2019-05-12T16:35:49.361Z,29.18
2019-05-12T16:37:54.903Z,29.77
2019-05-12T16:40:00.553Z,30.12
2019-05-12T16:42:10.447Z,25.15
2019-05-12T16:44:21.429Z,32.90
2019-05-12T16:46:23.475Z,31.40
2019-05-12T16:48:33.087Z,28.32
2019-05-12T16:50:36.205Z,17.37
2019-05-12T16:52:42.777Z,23.80
2019-05-12T16:54:49.023Z,27.55
2019-05-12T16:56:54.584Z,32.65
2019-05-12T16:59:00.297Z,28.42
2019-05-12T17:01:05.985Z,26.42
2019-05-12T17:03:20.269Z,22.37
2019-05-12T17:05:30.145Z,43.20
2019-05-12T17:07:35.808Z,28.87
2019-05-12T17:09:43.814Z,27.58
2019-05-12T17:11:52.557Z,18.27
2019-05-12T17:14:01.575Z,22.73
2019-05-12T17:16:04.448Z,28.83
2019-05-12T17:18:10.081Z,24.00
2019-05-12T17:20:15.843Z,22.85
2019-05-12T17:22:23.870Z,46.02
2019-05-12T17:24:28.601Z,24.65
2019-05-12T17:26:34.328Z,23.45
2019-05-12T17:28:39.946Z,45.52
2019-05-12T17:30:45.512Z,47.05
2019-05-12T17:32:57.888Z,78.57
2019-05-12T17:35:04.181Z,93.85
2019-05-12T17:37:09.884Z,47.58
2019-05-12T17:39:15.466Z,54.93
2019-05-12T17:41:23.485Z,55.95
2019-05-12T17:43:28.190Z,50.88
2019-05-12T17:45:34.786Z,42.00
2019-05-12T17:47:40.308Z,41.20
2019-05-12T17:49:45.928Z,52.53
2019-05-12T17:51:53.405Z,44.63
2019-05-12T17:53:58.713Z,49.25
2019-05-12T17:56:04.918Z,30.88
2019-05-12T17:58:10.546Z,30.27
2019-05-12T18:00:16.489Z,64.95
2019-05-12T18:02:23.662Z,55.28
2019-05-12T18:04:30.698Z,23.65
2019-05-12T18:06:36.436Z,45.25
2019-05-12T18:08:44.303Z,22.45
2019-05-12T18:10:49.180Z,27.40
2019-05-12T18:12:54.752Z,22.05
2019-05-12T18:15:00.292Z,30.32
2019-05-12T18:17:08.632Z,60.60
2019-05-12T18:19:15.437Z,55.88
2019-05-12T18:21:21.903Z,26.87
2019-05-12T18:23:30.293Z,27.17
2019-05-12T18:25:36.776Z,27.30
2019-05-12T18:27:48.064Z,32.28
2019-05-12T18:29:49.361Z,25.00
2019-05-12T18:31:55.618Z,19.92
2019-05-12T18:34:04.810Z,35.88
2019-05-12T18:36:09.577Z,21.85
2019-05-12T18:38:23.082Z,20.82
2019-05-12T18:40:24.496Z,42.65
2019-05-12T18:42:29.545Z,52.27
2019-05-12T18:44:35.092Z,107.67
2019-05-12T18:46:44.876Z,170.22
2019-05-12T18:48:47.927Z,95.50
2019-05-12T18:50:53.548Z,410.73
2019-05-12T18:53:00.183Z,69.90
2019-05-12T18:55:06.981Z,377.25
2019-05-12T18:57:12.533Z,110.32
2019-05-12T18:59:18.076Z,61.65
2019-05-12T19:01:24.516Z,78.10
2019-05-12T19:03:43.961Z,158.07
2019-05-12T19:05:37.468Z,44.95
2019-05-12T19:07:43.898Z,50.78
2019-05-12T19:09:49.753Z,32.53
2019-05-12T19:11:55.869Z,26.95
2019-05-12T19:14:04.101Z,28.75
2019-05-12T19:16:11.161Z,29.07
2019-05-12T19:18:18.362Z,43.65
2019-05-12T19:20:24.119Z,18.30
2019-05-12T19:22:30.958Z,20.37
2019-05-12T19:24:37.685Z,28.62
2019-05-12T19:26:43.992Z,24.98
2019-05-12T19:28:56.140Z,23.57
2019-05-12T19:31:01.055Z,34.27
2019-05-12T19:33:10.527Z,32.65
2019-05-12T19:35:15.965Z,39.33
2019-05-12T19:37:26.406Z,44.00
2019-05-12T19:39:27.506Z,38.75
2019-05-12T19:41:36.390Z,29.25
2019-05-12T19:43:46.806Z,36.23
2019-05-12T19:45:47.425Z,32.00
2019-05-12T19:47:53.527Z,36.58
2019-05-12T19:49:59.687Z,38.42
2019-05-12T19:52:07.864Z,28.90
2019-05-12T19:54:14.019Z,32.53
2019-05-12T19:56:19.770Z,36.98
2019-05-12T19:58:25.346Z,43.52
2019-05-12T20:00:32.917Z,33.35
2019-05-12T20:02:38.121Z,37.95
2019-05-12T20:04:51.712Z,36.42
2019-05-12T20:06:50.895Z,32.83
2019-05-12T20:09:06.157Z,32.75
2019-05-12T20:11:03.871Z,31.20
2019-05-12T20:13:09.566Z,36.95
2019-05-12T20:15:15.501Z,29.72
2019-05-12T20:17:21.015Z,34.27
2019-05-12T20:19:27.731Z,45.43
2019-05-12T20:21:34.014Z,32.93
2019-05-12T20:23:39.769Z,32.63
2019-05-12T20:25:45.333Z,27.60
2019-05-12T20:27:56.011Z,30.43
2019-05-12T20:29:58.132Z,35.88
2019-05-12T20:32:04.651Z,24.55
2019-05-12T20:34:13.886Z,30.15
2019-05-12T20:36:20.724Z,30.65
2019-05-12T20:38:33.909Z,24.12
2019-05-12T20:40:37.529Z,22.80
2019-05-12T20:42:48.297Z,28.05
2019-05-12T20:44:51.175Z,25.90
2019-05-12T20:47:01.075Z,35.52
2019-05-12T20:49:07.570Z,24.90
2019-05-12T20:51:18.179Z,27.22
2019-05-12T20:53:16.620Z,21.93
2019-05-12T20:55:23.454Z,28.50
2019-05-12T20:57:29.129Z,25.77
2019-05-12T20:59:34.768Z,20.60
2019-05-12T21:01:40.298Z,21.37
2019-05-12T21:03:50.733Z,24.90
2019-05-12T21:05:58.262Z,31.60
2019-05-12T21:08:05.385Z,23.25
2019-05-12T21:10:08.385Z,20.27
2019-05-12T21:12:14.041Z,21.62
2019-05-12T21:14:19.621Z,17.90
2019-05-12T21:16:38.936Z,20.55
2019-05-12T21:18:49.968Z,20.82
2019-05-12T21:20:52.322Z,23.87
2019-05-12T21:22:59.800Z,18.73
2019-05-12T21:25:10.699Z,20.57
2019-05-12T21:27:15.755Z,16.95
2019-05-12T21:29:25.604Z,14.30
2019-05-12T21:31:30.963Z,15.13
2019-05-12T21:33:41.468Z,21.40
2019-05-12T21:35:46.126Z,17.52
2019-05-12T21:37:53.607Z,18.65
2019-05-12T21:39:58.926Z,16.20
2019-05-12T21:42:04.637Z,15.75
2019-05-12T21:44:11.250Z,21.70
2019-05-12T21:46:17.045Z,16.75
2019-05-12T21:48:24.243Z,16.42
2019-05-12T21:50:37.909Z,17.70
2019-05-12T21:52:39.169Z,18.98
2019-05-12T21:54:44.235Z,20.25
2019-05-12T21:56:49.893Z,14.15
2019-05-12T21:58:58.161Z,16.90
2019-05-12T22:01:05.159Z,19.48
2019-05-12T22:03:15.263Z,16.23
2019-05-12T22:05:23.972Z,17.07
2019-05-12T22:07:29.500Z,19.17
2019-05-12T22:09:41.428Z,18.37
2019-05-12T22:11:42.252Z,17.70
2019-05-12T22:13:56.243Z,14.25
2019-05-12T22:15:57.311Z,16.45
2019-05-12T22:18:04.635Z,16.27
2019-05-12T22:20:15.651Z,18.00
2019-05-12T22:22:19.599Z,14.33
2019-05-12T22:24:27.473Z,14.87
2019-05-12T22:26:39.567Z,15.30
2019-05-12T22:28:40.422Z,17.37
2019-05-12T22:30:45.712Z,20.92
2019-05-12T22:32:51.241Z,16.40
2019-05-12T22:34:56.821Z,15.32
2019-05-12T22:37:03.919Z,18.92
2019-05-12T22:39:09.766Z,16.77
2019-05-12T22:41:16.769Z,16.12
2019-05-12T22:43:23.744Z,19.20
2019-05-12T22:45:29.492Z,17.67
2019-05-12T22:47:35.065Z,19.35
2019-05-12T22:49:40.657Z,17.23
2019-05-12T22:51:46.587Z,12.88
2019-05-12T22:53:53.939Z,13.48
2019-05-12T22:56:02.880Z,14.78
2019-05-12T22:58:10.722Z,16.70
2019-05-12T23:00:19.207Z,19.80
2019-05-12T23:02:25.442Z,19.12
2019-05-12T23:04:35.537Z,15.80
2019-05-12T23:06:56.955Z,16.55
2019-05-12T23:09:02.760Z,17.52
2019-05-12T23:11:08.448Z,18.00
2019-05-12T23:13:14.026Z,17.75
2019-05-12T23:15:19.697Z,21.48
2019-05-12T23:17:25.330Z,20.55
2019-05-12T23:19:30.886Z,13.00
2019-05-12T23:21:36.389Z,16.35
2019-05-12T23:23:41.997Z,16.52
2019-05-12T23:25:51.888Z,14.60
2019-05-12T23:27:54.747Z,18.42
2019-05-12T23:30:01.506Z,18.30
2019-05-12T23:32:11.987Z,16.57
2019-05-12T23:34:14.736Z,17.42
2019-05-12T23:36:20.272Z,15.83
2019-05-12T23:38:25.846Z,15.13
2019-05-12T23:40:31.384Z,16.20
2019-05-12T23:42:36.940Z,14.70
2019-05-12T23:44:44.188Z,13.75
2019-05-12T23:46:49.639Z,18.75
2019-05-12T23:48:55.197Z,14.83
2019-05-12T23:51:00.771Z,16.60
2019-05-12T23:53:06.326Z,16.62
2019-05-12T23:55:13.867Z,16.57
2019-05-12T23:57:19.185Z,16.52
2019-05-12T23:59:24.764Z,15.83
